Time;durP1;ratioP1;P1;durP2;ratioP2;P2;SDS_P1;SDS_P2;PMS_P1;PMS_P2;Temp;Humidity;BMP_temperature;BMP_pressure;BME280_temperature;BME280_humidity;BME280_pressure;Samples;Min_cycle;Max_cycle;Signal;HPM_P1;HPM_P2
2024/03/22 00:07:06;;;;;;;55.20;30.38;;;11.40;99.90;;;;;;21341996;23;20535;-49
2024/03/22 00:17:21;;;;;;;55.67;30.63;;;11.50;99.90;;;;;;21090071;23;20674;-48
2024/03/22 00:27:21;;;;;;;51.90;28.80;;;11.60;99.90;;;;;;21088325;23;20145;-48
2024/03/22 00:37:22;;;;;;;53.57;28.77;;;11.50;99.90;;;;;;21090811;23;20065;-48
2024/03/22 00:47:23;;;;;;;47.75;27.15;;;11.50;99.90;;;;;;21124889;23;20444;-48
2024/03/22 00:57:24;;;;;;;52.30;28.88;;;11.50;99.90;;;;;;21141430;23;20050;-49
2024/03/22 01:07:24;;;;;;;49.43;26.73;;;11.50;99.90;;;;;;21224657;23;20061;-48
2024/03/22 01:17:25;;;;;;;53.85;28.05;;;11.40;99.90;;;;;;21279596;23;20468;-48
2024/03/22 01:27:26;;;;;;;52.88;27.13;;;11.30;99.90;;;;;;21168315;23;20045;-49
2024/03/22 01:37:26;;;;;;;53.20;27.98;;;11.30;99.90;;;;;;21157775;23;20180;-49
2024/03/22 01:57:43;;;;;;;59.40;31.60;;;11.30;99.90;;;;;;21280637;23;20444;-49
2024/03/22 02:07:43;;;;;;;59.45;30.52;;;11.30;99.90;;;;;;21160443;23;20046;-48
2024/03/22 02:17:44;;;;;;;63.67;33.28;;;11.10;99.80;;;;;;21145968;23;20413;-48
2024/03/22 02:27:45;;;;;;;63.42;32.88;;;11.00;99.90;;;;;;21159877;23;20133;-48
2024/03/22 02:37:45;;;;;;;59.58;29.65;;;11.10;99.90;;;;;;21132377;23;20497;-50
2024/03/22 02:47:46;;;;;;;72.72;35.17;;;11.00;99.90;;;;;;21063228;23;20044;-48
2024/03/22 02:57:50;;;;;;;77.28;37.92;;;10.90;99.90;;;;;;21177037;23;20497;-50
2024/03/22 03:07:50;;;;;;;59.15;30.23;;;10.90;99.90;;;;;;21129516;23;20046;-48
2024/03/22 03:17:51;;;;;;;62.58;29.42;;;10.80;99.90;;;;;;21155914;23;20042;-48
2024/03/22 03:27:52;;;;;;;55.10;28.27;;;10.70;99.90;;;;;;21106278;23;20041;-48
2024/03/22 03:58:09;;;;;;;48.38;23.20;;;10.50;99.90;;;;;;21193607;23;20116;-48
2024/03/22 04:08:09;;;;;;;47.20;21.03;;;10.40;99.90;;;;;;21256583;23;20053;-48
2024/03/22 04:18:10;;;;;;;46.35;20.50;;;10.40;99.90;;;;;;21172678;23;20488;-48
2024/03/22 04:28:11;;;;;;;41.97;19.93;;;10.40;99.90;;;;;;21101573;23;20132;-48
2024/03/22 04:38:11;;;;;;;40.53;19.70;;;10.40;99.90;;;;;;21201418;23;20468;-48
2024/03/22 04:48:14;;;;;;;35.50;17.77;;;10.40;99.90;;;;;;21224614;23;20034;-49
2024/03/22 04:58:19;;;;;;;35.45;17.50;;;10.40;99.90;;;;;;21220033;23;20141;-48
2024/03/22 05:08:19;;;;;;;33.00;16.67;;;10.30;99.90;;;;;;21180993;23;20081;-49
2024/03/22 05:18:20;;;;;;;45.20;17.77;;;10.40;99.90;;;;;;21165917;23;20421;-48
2024/03/22 05:28:21;;;;;;;40.70;19.67;;;10.40;99.90;;;;;;21217879;23;20081;-48
2024/03/22 05:48:32;;;;;;;38.60;17.27;;;10.50;95.80;;;;;;21330783;23;20096;-48
2024/03/22 05:58:32;;;;;;;37.53;16.17;;;10.40;87.50;;;;;;20991756;23;20040;-48
2024/03/22 06:08:34;;;;;;;31.60;16.75;;;10.50;70.40;;;;;;21159158;23;20100;-48
2024/03/22 06:18:35;;;;;;;33.42;15.10;;;10.50;64.80;;;;;;21183525;23;20079;-48
2024/03/22 06:28:36;;;;;;;32.22;14.43;;;10.60;52.30;;;;;;21236963;23;20080;-49
2024/03/22 06:38:38;;;;;;;33.03;13.97;;;10.70;45.30;;;;;;21175955;23;20448;-48
2024/03/22 06:48:38;;;;;;;30.17;14.23;;;10.70;35.10;;;;;;21196023;23;20468;-48
2024/03/22 06:58:39;;;;;;;30.50;12.90;;;10.80;36.20;;;;;;21180182;23;20054;-48
2024/03/22 07:08:40;;;;;;;25.38;12.93;;;10.90;31.40;;;;;;21013456;23;20073;-48
2024/03/22 07:28:51;;;;;;;26.98;13.02;;;10.90;25.60;;;;;;21223697;23;20037;-49
2024/03/22 07:38:52;;;;;;;31.80;12.68;;;10.80;27.70;;;;;;21189589;23;20052;-49
2024/03/22 07:48:53;;;;;;;32.15;13.18;;;10.80;30.40;;;;;;21131694;23;20050;-48
2024/03/22 07:58:54;;;;;;;31.17;12.18;;;10.70;42.90;;;;;;21279988;23;20049;-47
2024/03/22 08:08:54;;;;;;;28.30;12.73;;;10.70;60.90;;;;;;21158001;23;20409;-47
2024/03/22 08:18:55;;;;;;;29.03;12.23;;;10.80;75.30;;;;;;21273595;23;20058;-47
2024/03/22 08:28:56;;;;;;;26.42;12.20;;;10.70;99.00;;;;;;21144531;23;20029;-49
2024/03/22 08:38:56;;;;;;;26.27;11.93;;;10.50;99.90;;;;;;21177697;23;20073;-48
2024/03/22 08:48:57;;;;;;;30.52;12.15;;;10.50;99.90;;;;;;21308352;23;20465;-48
2024/03/22 08:58:59;;;;;;;30.52;13.23;;;10.50;99.90;;;;;;21146312;23;20496;-48
2024/03/22 09:19:18;;;;;;;28.52;12.65;;;10.50;99.90;;;;;;21432301;23;20037;-48
2024/03/22 09:29:19;;;;;;;29.30;13.02;;;10.30;99.90;;;;;;21111924;23;20062;-48
2024/03/22 09:39:20;;;;;;;27.85;12.95;;;10.40;99.90;;;;;;21198317;23;20053;-48
2024/03/22 09:49:21;;;;;;;29.20;13.80;;;10.30;99.90;;;;;;21219044;23;20439;-48
2024/03/22 09:59:22;;;;;;;32.47;15.73;;;10.30;99.90;;;;;;21149647;23;20042;-48
2024/03/22 10:09:32;;;;;;;26.27;14.05;;;10.40;99.90;;;;;;21230082;23;20400;-49
2024/03/22 10:19:33;;;;;;;28.33;14.23;;;10.50;99.90;;;;;;21161438;23;20507;-47
2024/03/22 10:29:34;;;;;;;27.97;14.53;;;10.40;99.90;;;;;;21225071;23;20045;-50
2024/03/22 10:39:35;;;;;;;23.70;13.50;;;10.50;99.90;;;;;;21201087;23;20046;-49
2024/03/22 10:49:37;;;;;;;21.58;11.43;;;10.60;99.90;;;;;;21203030;23;20044;-48
2024/03/22 11:10:16;;;;;;;19.70;10.73;;;10.70;99.90;;;;;;20563276;23;21607;-49
2024/03/22 11:20:18;;;;;;;16.65;9.38;;;10.70;99.90;;;;;;20628533;23;20097;-48
2024/03/22 11:30:18;;;;;;;18.92;9.40;;;10.60;99.90;;;;;;20627786;23;20084;-49
2024/03/22 11:40:19;;;;;;;18.08;9.70;;;10.60;99.90;;;;;;20516173;23;20147;-49
2024/03/22 11:50:20;;;;;;;18.23;10.38;;;10.70;99.90;;;;;;20649771;23;20378;-48
2024/03/22 12:00:22;;;;;;;20.67;11.30;;;10.60;99.90;;;;;;20183562;23;20045;-48
2024/03/22 12:10:23;;;;;;;24.85;12.80;;;10.60;99.90;;;;;;20353956;23;20056;-48
2024/03/22 12:40:44;;;;;;;25.98;12.05;;;10.90;99.90;;;;;;20487591;23;20634;-48
2024/03/22 12:50:45;;;;;;;25.73;11.90;;;10.90;99.90;;;;;;20518805;23;20151;-48
2024/03/22 13:00:46;;;;;;;17.07;9.07;;;11.10;99.90;;;;;;20622447;23;20061;-48
2024/03/22 13:10:48;;;;;;;20.63;11.02;;;11.10;99.90;;;;;;20578410;23;20445;-49
2024/03/22 13:20:48;;;;;;;23.58;12.55;;;11.10;99.90;;;;;;20670179;23;20089;-48
2024/03/22 13:30:49;;;;;;;25.77;11.90;;;11.10;99.90;;;;;;20576519;23;20080;-48
2024/03/22 13:40:58;;;;;;;21.40;10.63;;;11.10;99.90;;;;;;20680978;23;20456;-49
2024/03/22 13:50:58;;;;;;;18.52;10.95;;;11.10;99.90;;;;;;20662167;23;20050;-48
2024/03/22 14:01:00;;;;;;;24.47;10.20;;;11.10;99.90;;;;;;20563237;23;20053;-48
2024/03/22 14:21:22;;;;;;;20.17;9.68;;;11.00;99.90;;;;;;20646019;23;20057;-56
2024/03/22 14:31:23;;;;;;;19.42;8.45;;;11.00;99.90;;;;;;20561393;23;20140;-48
2024/03/22 14:41:24;;;;;;;21.30;8.68;;;10.90;99.90;;;;;;20590564;23;20057;-48
2024/03/22 14:51:25;;;;;;;20.75;8.40;;;10.70;99.90;;;;;;20538129;23;20102;-49
2024/03/22 15:01:26;;;;;;;20.50;7.25;;;10.70;99.90;;;;;;20494561;23;20062;-48
2024/03/22 15:11:27;;;;;;;20.55;7.90;;;10.70;99.90;;;;;;20512396;23;20054;-48
2024/03/22 15:21:28;;;;;;;21.75;5.55;;;10.50;99.90;;;;;;20608124;23;20065;-48
2024/03/22 15:31:29;;;;;;;19.47;4.67;;;10.40;99.90;;;;;;20559686;23;20057;-49
2024/03/22 15:41:30;;;;;;;21.83;4.88;;;10.20;96.70;;;;;;20544839;23;20923;-48
2024/03/22 15:51:30;;;;;;;21.75;5.10;;;10.10;96.70;;;;;;20619634;23;20286;-48
2024/03/22 16:21:47;;;;;;;18.83;3.67;;;9.70;99.90;;;;;;20573221;23;20935;-47
2024/03/22 16:31:48;;;;;;;15.82;4.50;;;9.70;99.90;;;;;;20579779;23;20045;-48
2024/03/22 16:41:49;;;;;;;18.92;4.15;;;9.60;99.90;;;;;;20478663;23;20054;-47
2024/03/22 16:51:50;;;;;;;20.23;4.85;;;9.50;99.90;;;;;;20604175;23;20109;-48
2024/03/22 17:01:51;;;;;;;19.93;4.03;;;9.50;99.90;;;;;;20567010;23;20053;-48
2024/03/22 17:11:52;;;;;;;20.45;4.70;;;9.40;99.90;;;;;;20612803;23;20461;-48
2024/03/22 17:21:52;;;;;;;19.88;4.00;;;9.30;99.90;;;;;;20679108;23;20094;-48
2024/03/22 17:31:53;;;;;;;21.17;5.33;;;9.30;99.90;;;;;;20658844;23;20069;-47
2024/03/22 17:41:53;;;;;;;20.40;5.60;;;9.20;99.90;;;;;;20594423;23;20053;-49
2024/03/22 17:51:54;;;;;;;19.90;4.95;;;9.10;99.90;;;;;;20603971;23;20051;-49
2024/03/22 18:01:58;;;;;;;25.27;6.67;;;9.00;99.90;;;;;;20487964;23;20052;-85
2024/03/22 18:12:01;;;;;;;23.25;4.60;;;9.00;99.90;;;;;;20261546;29;20477;-83
2024/03/22 18:22:03;;;;;;;21.95;5.50;;;8.90;99.90;;;;;;20292812;29;20037;-84
2024/03/22 18:32:11;;;;;;;21.52;5.45;;;8.80;99.90;;;;;;20296203;29;20037;-83
2024/03/22 18:42:14;;;;;;;20.73;5.37;;;8.80;99.90;;;;;;20239175;29;20041;-82
2024/03/22 18:52:22;;;;;;;22.67;6.07;;;8.80;99.90;;;;;;20263541;29;21105;-84
2024/03/22 19:02:26;;;;;;;20.08;7.25;;;8.80;99.90;;;;;;20216450;29;20048;-82
2024/03/22 19:12:30;;;;;;;27.70;6.65;;;8.70;99.90;;;;;;20228208;29;20053;-82
2024/03/22 19:22:32;;;;;;;27.10;6.50;;;8.70;99.90;;;;;;20208909;29;20041;-82
2024/03/22 19:32:36;;;;;;;18.02;5.10;;;8.60;99.90;;;;;;20271799;29;20049;-83
2024/03/22 19:42:45;;;;;;;26.53;6.43;;;8.50;99.90;;;;;;20228433;29;20131;-84
2024/03/22 19:52:52;;;;;;;25.13;6.93;;;8.60;99.90;;;;;;20200452;29;20034;-84
2024/03/22 20:14:03;;;;;;;25.85;6.85;;;8.60;99.90;;;;;;20202718;29;20029;-83
2024/03/22 20:24:11;;;;;;;20.43;6.53;;;8.60;99.90;;;;;;20212644;29;20040;-83
2024/03/22 20:34:22;;;;;;;21.80;5.93;;;8.50;99.90;;;;;;20211172;23;20063;-50
2024/03/22 20:44:24;;;;;;;17.93;6.17;;;8.50;99.90;;;;;;20685888;23;20132;-48
2024/03/22 20:54:25;;;;;;;21.25;7.22;;;8.50;99.90;;;;;;20296678;23;20641;-48
2024/03/22 21:14:57;;;;;;;25.55;7.97;;;8.40;99.90;;;;;;20406370;23;19916;-90
2024/03/22 21:25:02;;;;;;;21.13;7.15;;;8.40;99.90;;;;;;20293356;23;20063;-48
2024/03/22 21:35:04;;;;;;;23.67;7.63;;;8.30;99.90;;;;;;20587169;23;20058;-49
2024/03/22 21:45:06;;;;;;;21.45;7.03;;;8.30;99.90;;;;;;20691603;23;20050;-48
2024/03/22 21:55:10;;;;;;;25.33;8.40;;;8.20;99.90;;;;;;20486742;23;20060;-47
2024/03/22 22:05:12;;;;;;;23.80;7.88;;;8.30;99.90;;;;;;20622926;23;20141;-49
2024/03/22 22:15:22;;;;;;;18.63;7.93;;;8.20;99.90;;;;;;20395498;23;20044;-83
2024/03/22 22:25:25;;;;;;;25.58;7.50;;;8.10;99.90;;;;;;20426100;29;20047;-82
2024/03/22 22:35:30;;;;;;;21.00;7.78;;;8.10;99.90;;;;;;20417198;29;20039;-83
2024/03/22 22:45:35;;;;;;;22.77;8.18;;;7.90;99.90;;;;;;20463861;29;20040;-83
2024/03/22 22:55:38;;;;;;;22.85;7.82;;;8.00;99.90;;;;;;20456799;29;20054;-82
2024/03/22 23:05:42;;;;;;;19.95;9.15;;;7.90;99.90;;;;;;20454117;29;20024;-83
2024/03/22 23:26:56;;;;;;;22.92;8.32;;;7.90;99.90;;;;;;20920339;23;20048;-48
2024/03/22 23:36:57;;;;;;;23.23;8.82;;;7.90;99.90;;;;;;20888847;23;20566;-48
2024/03/22 23:47:33;;;;;;;28.67;9.43;;;7.90;99.90;;;;;;20719024;23;20045;-87
